createdAt,value
2018-02-05T00:01:10.059Z,70.40
2018-02-05T00:03:36.679Z,70.30
2018-02-05T00:06:03.233Z,69.90
2018-02-05T00:08:30.100Z,69.70
2018-02-05T00:10:56.959Z,69.30
2018-02-05T00:13:23.435Z,69.60
2018-02-05T00:15:49.961Z,69.50
2018-02-05T00:18:16.372Z,69.40
2018-02-05T00:20:43.088Z,69.80
2018-02-05T00:23:09.650Z,70.10
2018-02-05T00:25:36.103Z,70.00
2018-02-05T00:28:02.683Z,69.90
2018-02-05T00:30:29.164Z,69.80
2018-02-05T00:32:55.719Z,70.00
2018-02-05T00:35:22.620Z,70.50
2018-02-05T00:37:49.092Z,70.90
2018-02-05T00:40:15.658Z,71.50
2018-02-05T00:42:42.201Z,71.40
2018-02-05T00:45:08.692Z,71.50
2018-02-05T00:47:35.550Z,71.80
2018-02-05T00:50:02.159Z,71.90
2018-02-05T00:52:29.598Z,71.80
2018-02-05T00:54:56.128Z,72.20
2018-02-05T00:57:22.595Z,72.60
2018-02-05T00:59:49.131Z,72.80
2018-02-05T01:02:15.681Z,72.80
2018-02-05T01:04:42.594Z,73.00
2018-02-05T01:07:09.972Z,72.90
2018-02-05T01:09:36.560Z,72.90
2018-02-05T01:12:03.038Z,73.00
2018-02-05T01:14:29.579Z,73.10
2018-02-05T01:16:56.143Z,73.30
2018-02-05T01:19:22.559Z,73.00
2018-02-05T01:21:49.592Z,73.00
2018-02-05T01:24:16.628Z,72.80
2018-02-05T01:26:43.159Z,73.10
2018-02-05T01:29:09.721Z,73.20
2018-02-05T01:31:36.239Z,73.50
2018-02-05T01:34:02.857Z,73.40
2018-02-05T01:36:29.381Z,73.70
2018-02-05T01:38:55.876Z,74.10
2018-02-05T01:41:22.373Z,74.10
2018-02-05T01:43:48.916Z,74.00
2018-02-05T01:46:15.369Z,73.70
2018-02-05T01:48:42.366Z,73.90
2018-02-05T01:51:08.846Z,74.10
2018-02-05T01:53:35.712Z,73.90
2018-02-05T01:56:02.265Z,74.00
2018-02-05T01:58:28.814Z,73.30
2018-02-05T02:00:55.284Z,73.40
2018-02-05T02:03:21.685Z,73.40
2018-02-05T02:05:48.351Z,73.20
2018-02-05T02:08:14.952Z,73.10
2018-02-05T02:10:41.349Z,73.30
2018-02-05T02:13:08.008Z,73.10
2018-02-05T02:15:34.508Z,73.50
2018-02-05T02:18:01.019Z,73.40
2018-02-05T02:20:27.492Z,73.50
2018-02-05T02:22:54.123Z,73.30
2018-02-05T02:25:20.631Z,73.30
2018-02-05T02:27:47.157Z,73.20
2018-02-05T02:30:13.732Z,73.30
2018-02-05T02:32:40.299Z,73.80
2018-02-05T02:35:06.844Z,73.70
2018-02-05T02:37:33.360Z,73.90
2018-02-05T02:40:00.184Z,73.80
2018-02-05T02:42:26.595Z,73.40
2018-02-05T02:44:53.239Z,73.60
2018-02-05T02:47:19.803Z,74.00
2018-02-05T02:49:46.599Z,74.30
2018-02-05T02:52:13.135Z,74.30
2018-02-05T02:54:39.784Z,74.30
2018-02-05T02:57:06.259Z,74.40
2018-02-05T02:59:32.711Z,74.60
2018-02-05T03:01:59.366Z,74.90
2018-02-05T03:04:25.826Z,75.10
2018-02-05T03:06:52.712Z,74.90
2018-02-05T03:09:19.208Z,75.00
2018-02-05T03:11:45.737Z,75.10
2018-02-05T03:14:12.119Z,75.00
2018-02-05T03:16:38.800Z,75.30
2018-02-05T03:19:05.388Z,75.40
2018-02-05T03:21:31.863Z,75.70
2018-02-05T03:23:58.451Z,75.80
2018-02-05T03:26:24.935Z,75.90
2018-02-05T03:28:51.560Z,75.70
2018-02-05T03:31:18.074Z,75.90
2018-02-05T03:33:44.529Z,75.90
2018-02-05T03:36:11.087Z,76.00
2018-02-05T03:38:37.475Z,75.90
2018-02-05T03:41:04.160Z,76.00
2018-02-05T03:43:30.671Z,76.20
2018-02-05T03:45:57.316Z,76.30
2018-02-05T03:48:23.751Z,76.30
2018-02-05T03:50:50.289Z,76.30
2018-02-05T03:53:16.896Z,76.10
2018-02-05T03:55:43.339Z,76.20
2018-02-05T03:58:09.895Z,75.90
2018-02-05T04:00:36.473Z,76.20
2018-02-05T04:03:03.016Z,76.10
2018-02-05T04:05:29.791Z,75.90
2018-02-05T04:07:56.410Z,75.80
2018-02-05T04:10:22.894Z,75.70
2018-02-05T04:12:49.283Z,75.70
2018-02-05T04:15:16.371Z,75.80
2018-02-05T04:17:42.780Z,75.90
2018-02-05T04:20:09.371Z,75.90
2018-02-05T04:22:36.164Z,75.90
2018-02-05T04:25:02.790Z,76.10
2018-02-05T04:27:29.302Z,75.90
2018-02-05T04:29:55.804Z,76.00
2018-02-05T04:32:22.690Z,76.30
2018-02-05T04:34:49.239Z,76.40
2018-02-05T04:37:16.327Z,76.60
2018-02-05T04:39:42.796Z,76.70
2018-02-05T04:42:09.776Z,76.90
2018-02-05T04:44:36.881Z,76.70
2018-02-05T04:47:03.644Z,76.70
2018-02-05T04:49:30.536Z,77.10
2018-02-05T04:51:57.956Z,77.30
2018-02-05T04:54:24.541Z,77.40
2018-02-05T04:56:50.924Z,77.60
2018-02-05T04:59:17.881Z,77.80
2018-02-05T05:01:46.305Z,78.00
2018-02-05T05:04:12.844Z,77.90
2018-02-05T05:06:39.255Z,77.50
2018-02-05T05:09:05.882Z,77.60
2018-02-05T05:11:32.735Z,77.30
2018-02-05T05:13:59.308Z,77.10
2018-02-05T05:16:25.774Z,76.90
2018-02-05T05:18:52.393Z,76.90
2018-02-05T05:21:18.818Z,76.80
2018-02-05T05:23:45.611Z,77.10
2018-02-05T05:26:12.555Z,77.40
2018-02-05T05:28:39.123Z,77.40
2018-02-05T05:31:05.916Z,77.00
2018-02-05T05:33:32.435Z,76.90
2018-02-05T05:35:58.977Z,76.80
2018-02-05T05:38:25.575Z,76.80
2018-02-05T05:40:52.108Z,76.60
2018-02-05T05:43:18.568Z,77.30
2018-02-05T05:45:45.239Z,77.00
2018-02-05T05:48:11.642Z,76.60
2018-02-05T05:50:38.199Z,76.10
2018-02-05T05:53:04.731Z,75.90
2018-02-05T05:55:31.263Z,75.90
2018-02-05T05:57:57.815Z,76.10
2018-02-05T06:00:24.333Z,75.50
2018-02-05T06:02:50.963Z,74.90
2018-02-05T06:05:17.395Z,73.80
2018-02-05T06:07:43.943Z,72.40
2018-02-05T06:10:10.459Z,70.50
2018-02-05T06:12:37.024Z,68.80
2018-02-05T06:15:03.568Z,66.80
2018-02-05T06:17:30.061Z,64.90
2018-02-05T06:19:56.628Z,62.30
2018-02-05T06:22:23.149Z,59.90
2018-02-05T06:24:49.577Z,58.60
2018-02-05T06:27:16.576Z,57.40
2018-02-05T06:29:43.049Z,56.50
2018-02-05T06:32:09.647Z,55.10
2018-02-05T06:34:36.434Z,54.20
2018-02-05T06:37:03.006Z,52.60
2018-02-05T06:39:29.536Z,51.80
2018-02-05T06:41:56.024Z,50.40
2018-02-05T06:44:22.591Z,49.00
2018-02-05T06:46:49.164Z,47.00
2018-02-05T06:49:15.623Z,44.70
2018-02-05T07:05:11.072Z,39.10
2018-02-05T07:07:38.046Z,38.80
2018-02-05T07:10:05.034Z,38.50
2018-02-05T07:12:31.572Z,37.00
2018-02-05T07:14:58.129Z,36.60
2018-02-05T07:17:24.624Z,36.10
2018-02-05T07:19:51.194Z,35.80
2018-02-05T07:22:17.587Z,34.80
2018-02-05T07:24:44.249Z,34.00
2018-02-05T07:27:11.146Z,33.90
2018-02-05T07:29:37.663Z,34.00
2018-02-05T07:32:04.566Z,33.80
2018-02-05T07:34:31.664Z,34.10
2018-02-05T07:36:58.133Z,33.80
2018-02-05T07:39:24.541Z,33.30
2018-02-05T07:41:51.523Z,33.50
2018-02-05T07:44:18.163Z,33.50
2018-02-05T07:46:44.615Z,33.40
2018-02-05T07:49:11.131Z,33.00
2018-02-05T07:51:38.519Z,32.10
2018-02-05T07:54:05.129Z,32.20
2018-02-05T07:56:31.723Z,31.50
2018-02-05T07:58:58.213Z,30.80
2018-02-05T08:01:24.835Z,31.10
2018-02-05T08:03:51.327Z,30.20
2018-02-05T08:06:18.399Z,30.20
2018-02-05T08:08:45.016Z,29.20
2018-02-05T08:11:11.543Z,30.00
2018-02-05T08:13:38.319Z,29.50
2018-02-05T08:16:04.888Z,29.10
2018-02-05T08:18:32.500Z,28.70
2018-02-05T08:20:59.163Z,28.50
2018-02-05T08:23:25.563Z,28.00
2018-02-05T08:25:52.226Z,27.50
2018-02-05T08:28:18.773Z,27.00
2018-02-05T08:30:45.323Z,26.50
2018-02-05T08:33:11.817Z,26.50
2018-02-05T08:35:38.423Z,26.60
2018-02-05T08:38:04.965Z,26.00
2018-02-05T08:40:31.351Z,25.80
2018-02-05T08:42:58.060Z,26.00
2018-02-05T08:45:24.510Z,26.40
2018-02-05T08:47:51.079Z,25.90
2018-02-05T08:50:17.623Z,25.40
2018-02-05T08:52:44.256Z,26.30
2018-02-05T08:55:10.964Z,26.00
2018-02-05T08:57:37.796Z,25.90
2018-02-05T09:00:04.647Z,25.90
2018-02-05T09:02:31.179Z,26.60
2018-02-05T09:04:57.728Z,26.40
2018-02-05T09:07:24.251Z,26.50
2018-02-05T09:09:51.662Z,26.10
2018-02-05T09:12:18.300Z,26.70
2018-02-05T09:14:44.787Z,26.70
2018-02-05T09:17:11.685Z,26.00
2018-02-05T09:19:38.273Z,26.10
2018-02-05T09:22:04.763Z,26.70
2018-02-05T09:24:31.212Z,27.10
2018-02-05T09:26:57.912Z,26.50
2018-02-05T09:29:24.981Z,27.20
2018-02-05T09:31:51.495Z,26.80
2018-02-05T09:34:18.761Z,25.10
2018-02-05T09:36:45.800Z,25.30
2018-02-05T09:39:12.290Z,25.00
2018-02-05T09:41:38.819Z,24.90
2018-02-05T09:44:05.400Z,24.70
2018-02-05T09:46:31.852Z,24.20
2018-02-05T09:48:58.411Z,24.90
2018-02-05T09:51:24.976Z,24.50
2018-02-05T09:53:51.576Z,24.00
2018-02-05T09:56:18.031Z,24.40
2018-02-05T09:58:44.886Z,24.60
2018-02-05T10:01:11.818Z,24.60
2018-02-05T10:03:38.239Z,24.60
2018-02-05T10:06:04.775Z,23.90
2018-02-05T10:08:31.171Z,24.20
2018-02-05T10:10:58.162Z,24.00
2018-02-05T10:13:24.688Z,24.20
2018-02-05T10:15:51.283Z,24.80
2018-02-05T10:18:17.817Z,25.10
2018-02-05T10:20:44.304Z,24.70
2018-02-05T10:23:10.831Z,25.20
2018-02-05T10:25:37.238Z,24.50
2018-02-05T10:28:04.560Z,23.80
2018-02-05T10:30:31.044Z,24.60
2018-02-05T10:32:57.612Z,25.90
2018-02-05T10:35:24.192Z,26.10
2018-02-05T10:37:51.331Z,26.10
2018-02-05T10:40:17.836Z,26.10
2018-02-05T10:42:44.370Z,26.30
2018-02-05T10:45:11.183Z,25.50
2018-02-05T10:47:37.744Z,25.60
2018-02-05T10:50:04.341Z,26.20
2018-02-05T10:52:30.856Z,26.40
2018-02-05T10:54:57.336Z,26.50
2018-02-05T10:57:23.917Z,26.10
2018-02-05T10:59:50.384Z,25.50
2018-02-05T11:02:16.943Z,25.90
2018-02-05T11:04:43.447Z,26.60
2018-02-05T11:07:10.016Z,26.60
2018-02-05T11:09:36.515Z,27.50
2018-02-05T11:12:03.483Z,26.80
2018-02-05T11:14:30.537Z,26.90
2018-02-05T11:16:57.135Z,26.80
2018-02-05T11:19:24.281Z,25.40
2018-02-05T11:21:50.727Z,24.90
2018-02-05T11:24:17.615Z,25.10
2018-02-05T11:26:44.091Z,26.00
2018-02-05T11:29:10.703Z,26.40
2018-02-05T11:31:37.215Z,25.20
2018-02-05T11:34:04.032Z,26.40
2018-02-05T11:36:31.486Z,26.50
2018-02-05T11:38:58.047Z,27.80
2018-02-05T11:41:24.563Z,27.10
2018-02-05T11:43:51.163Z,28.00
2018-02-05T11:46:17.679Z,28.70
2018-02-05T11:48:44.219Z,27.70
2018-02-05T11:51:10.708Z,28.50
2018-02-05T11:53:37.319Z,28.60
2018-02-05T11:56:03.856Z,29.10
2018-02-05T11:58:30.321Z,29.50
2018-02-05T12:00:57.175Z,29.70
2018-02-05T12:03:23.723Z,30.50
2018-02-05T12:05:50.292Z,30.30
2018-02-05T12:08:16.764Z,30.40
2018-02-05T12:10:43.544Z,30.50
2018-02-05T12:13:10.195Z,31.30
2018-02-05T12:15:36.684Z,31.00
2018-02-05T12:18:03.232Z,31.00
2018-02-05T12:20:29.788Z,30.10
2018-02-05T12:22:56.275Z,31.00
2018-02-05T12:25:22.807Z,31.10
2018-02-05T12:27:49.199Z,31.30
2018-02-05T12:30:16.586Z,30.60
2018-02-05T12:32:43.024Z,30.60
2018-02-05T12:35:09.477Z,30.30
2018-02-05T12:37:36.218Z,31.80
2018-02-05T12:40:02.715Z,31.70
2018-02-05T12:42:29.131Z,30.90
2018-02-05T12:44:55.560Z,31.10
2018-02-05T12:47:22.915Z,30.40
2018-02-05T12:49:49.465Z,30.90
2018-02-05T12:52:15.919Z,31.00
2018-02-05T12:54:42.883Z,30.80
2018-02-05T12:57:09.349Z,30.80
2018-02-05T12:59:35.881Z,31.10
2018-02-05T13:02:06.295Z,31.10
2018-02-05T13:04:36.776Z,30.90
2018-02-05T13:07:03.462Z,33.10
2018-02-05T13:09:29.957Z,32.90
2018-02-05T13:11:56.495Z,32.00
2018-02-05T13:14:23.255Z,32.60
2018-02-05T13:16:50.481Z,32.30
2018-02-05T13:19:17.367Z,32.10
2018-02-05T13:21:44.171Z,31.50
2018-02-05T13:24:10.699Z,32.00
2018-02-05T13:26:37.255Z,32.00
2018-02-05T13:29:03.864Z,31.30
2018-02-05T13:31:30.625Z,31.20
2018-02-05T13:33:57.155Z,32.50
2018-02-05T13:36:23.784Z,32.10
2018-02-05T13:38:50.312Z,32.60
2018-02-05T13:41:16.775Z,32.90
2018-02-05T13:43:43.296Z,32.70
2018-02-05T13:46:10.226Z,32.00
2018-02-05T13:48:36.722Z,32.20
2018-02-05T13:51:03.332Z,33.20
2018-02-05T13:53:29.802Z,33.00
2018-02-05T13:55:56.263Z,33.70
2018-02-05T13:58:22.855Z,33.10
2018-02-05T14:00:49.431Z,33.30
2018-02-05T14:03:15.891Z,33.60
2018-02-05T14:05:42.432Z,33.40
2018-02-05T14:08:09.008Z,33.70
2018-02-05T14:10:35.563Z,32.50
2018-02-05T14:13:02.072Z,33.60
2018-02-05T14:15:28.569Z,33.60
2018-02-05T14:17:55.115Z,33.40
2018-02-05T14:20:21.630Z,33.50
2018-02-05T14:22:48.247Z,33.50
2018-02-05T14:25:15.687Z,33.70
2018-02-05T14:27:44.111Z,34.40
2018-02-05T14:30:10.590Z,34.60
2018-02-05T14:32:37.120Z,35.30
2018-02-05T14:35:03.668Z,35.50
2018-02-05T14:37:30.206Z,35.40
2018-02-05T14:39:56.696Z,36.30
2018-02-05T14:42:23.103Z,36.40
2018-02-05T14:44:49.780Z,36.50
2018-02-05T14:47:16.293Z,36.60
2018-02-05T14:49:42.876Z,36.40
2018-02-05T14:52:09.394Z,36.80
2018-02-05T14:54:35.895Z,36.60
2018-02-05T14:57:02.515Z,37.20
2018-02-05T14:59:28.887Z,37.50
2018-02-05T15:01:55.621Z,37.20
2018-02-05T15:04:22.031Z,37.50
2018-02-05T15:06:48.616Z,37.70
2018-02-05T15:09:15.168Z,38.40
2018-02-05T15:11:41.633Z,38.90
2018-02-05T15:14:08.222Z,39.20
2018-02-05T15:16:34.991Z,39.20
2018-02-05T15:19:01.948Z,39.90
2018-02-05T15:21:28.391Z,39.90
2018-02-05T15:23:55.248Z,40.40
2018-02-05T15:26:21.759Z,40.20
2018-02-05T15:28:48.602Z,40.20
2018-02-05T15:31:15.189Z,41.10
2018-02-05T15:33:41.679Z,41.50
2018-02-05T15:36:08.283Z,41.60
2018-02-05T15:38:35.081Z,41.90
2018-02-05T15:41:01.610Z,42.80
2018-02-05T15:43:28.004Z,42.40
2018-02-05T15:45:54.708Z,42.10
2018-02-05T15:48:21.220Z,42.60
2018-02-05T15:50:47.788Z,42.80
2018-02-05T15:53:14.627Z,43.40
2018-02-05T15:55:42.083Z,43.80
2018-02-05T15:58:09.181Z,43.70
2018-02-05T16:00:36.036Z,44.10
2018-02-05T16:03:02.875Z,44.60
2018-02-05T16:05:29.772Z,44.70
2018-02-05T16:07:56.241Z,44.90
2018-02-05T16:10:22.695Z,45.10
2018-02-05T16:12:49.611Z,45.50
2018-02-05T16:15:16.236Z,45.50
2018-02-05T16:17:43.665Z,45.80
2018-02-05T16:20:10.147Z,45.90
2018-02-05T16:22:36.721Z,45.90
2018-02-05T16:25:03.268Z,46.10
2018-02-05T16:27:30.088Z,46.70
2018-02-05T16:29:56.595Z,47.00
2018-02-05T16:32:23.232Z,47.60
2018-02-05T16:34:50.356Z,47.70
2018-02-05T16:37:16.820Z,48.10
2018-02-05T16:39:43.421Z,48.20
2018-02-05T16:42:09.956Z,48.00
2018-02-05T16:44:36.500Z,48.30
2018-02-05T16:47:02.967Z,48.40
2018-02-05T16:49:30.655Z,48.50
2018-02-05T16:51:57.420Z,48.90
2018-02-05T16:54:24.262Z,49.60
2018-02-05T16:56:51.254Z,50.20
2018-02-05T16:59:17.885Z,50.70
2018-02-05T17:01:44.363Z,50.50
2018-02-05T17:04:10.957Z,51.20
2018-02-05T17:06:37.408Z,50.60
2018-02-05T17:09:08.530Z,51.00
2018-02-05T17:11:35.129Z,51.10
2018-02-05T17:14:01.965Z,51.20
2018-02-05T17:16:28.508Z,51.30
2018-02-05T17:18:55.281Z,51.60
2018-02-05T17:21:21.823Z,51.80
2018-02-05T17:23:48.375Z,52.10
2018-02-05T17:26:14.909Z,52.20
2018-02-05T17:28:41.532Z,52.50
2018-02-05T17:31:07.979Z,52.80
2018-02-05T17:33:34.498Z,53.10
2018-02-05T17:36:01.036Z,53.50
2018-02-05T17:38:27.577Z,53.80
2018-02-05T17:40:54.107Z,53.20
2018-02-05T17:43:20.698Z,53.40
2018-02-05T17:45:47.515Z,53.40
2018-02-05T17:48:14.293Z,53.60
2018-02-05T17:50:40.852Z,54.00
2018-02-05T17:53:07.392Z,54.40
2018-02-05T17:55:33.928Z,53.80
2018-02-05T17:58:00.461Z,54.30
2018-02-05T18:00:27.043Z,54.60
2018-02-05T18:02:53.649Z,55.10
2018-02-05T18:05:20.141Z,55.70
2018-02-05T18:07:46.652Z,55.60
2018-02-05T18:10:13.143Z,56.10
2018-02-05T18:12:39.676Z,56.10
2018-02-05T18:15:07.113Z,55.40
2018-02-05T18:17:33.984Z,55.30
2018-02-05T18:20:00.582Z,55.50
2018-02-05T18:22:27.660Z,55.90
2018-02-05T18:24:54.262Z,55.60
2018-02-05T18:27:20.725Z,55.50
2018-02-05T18:29:47.167Z,54.90
2018-02-05T18:32:13.548Z,55.10
2018-02-05T18:34:40.342Z,56.20
2018-02-05T18:37:06.900Z,56.30
2018-02-05T18:39:33.729Z,56.20
2018-02-05T18:42:00.544Z,56.50
2018-02-05T18:44:27.103Z,56.40
2018-02-05T18:46:53.625Z,55.80
2018-02-05T18:49:20.083Z,56.40
2018-02-05T18:51:47.057Z,55.60
2018-02-05T18:54:13.606Z,55.40
2018-02-05T18:56:43.784Z,55.80
2018-02-05T18:59:10.168Z,56.00
2018-02-05T19:01:36.563Z,56.40
2018-02-05T19:04:03.388Z,56.10
2018-02-05T19:06:29.880Z,55.90
2018-02-05T19:08:56.493Z,55.90
2018-02-05T19:11:22.981Z,56.00
2018-02-05T19:13:49.515Z,56.40
2018-02-05T19:16:15.918Z,56.20
2018-02-05T19:18:42.892Z,55.90
2018-02-05T19:21:09.424Z,56.50
2018-02-05T19:23:36.318Z,55.70
2018-02-05T19:26:03.163Z,55.80
2018-02-05T19:28:31.897Z,56.10
2018-02-05T19:30:58.405Z,55.70
2018-02-05T19:33:24.927Z,55.90
2018-02-05T19:35:51.412Z,56.20
2018-02-05T19:38:17.925Z,56.20
2018-02-05T19:40:44.584Z,56.10
2018-02-05T19:43:11.352Z,56.40
2018-02-05T19:45:37.839Z,56.60
2018-02-05T19:48:04.697Z,56.30
2018-02-05T19:50:31.276Z,55.90
2018-02-05T19:52:57.748Z,56.00
2018-02-05T19:55:24.375Z,56.40
2018-02-05T19:57:50.906Z,56.10
2018-02-05T20:00:17.368Z,56.50
2018-02-05T20:02:43.879Z,56.70
2018-02-05T20:05:10.440Z,56.70
2018-02-05T20:07:36.975Z,57.20
2018-02-05T20:10:03.599Z,57.70
2018-02-05T20:12:30.007Z,57.70
2018-02-05T20:14:57.824Z,57.80
2018-02-05T20:17:25.919Z,57.90
2018-02-05T20:19:54.176Z,58.00
2018-02-05T20:22:20.806Z,58.30
2018-02-05T20:24:47.412Z,58.30
2018-02-05T20:27:13.910Z,58.60
2018-02-05T20:29:40.399Z,58.80
2018-02-05T20:32:06.955Z,59.70
2018-02-05T20:34:34.440Z,60.20
2018-02-05T20:37:01.677Z,60.00
2018-02-05T20:39:28.415Z,60.00
2018-02-05T20:41:54.948Z,60.40
2018-02-05T20:44:21.450Z,60.60
2018-02-05T20:46:47.986Z,61.20
2018-02-05T20:49:15.027Z,61.20
2018-02-05T20:51:41.673Z,61.20
2018-02-05T20:54:08.196Z,61.40
2018-02-05T20:56:35.032Z,62.20
2018-02-05T20:59:01.591Z,62.80
2018-02-05T21:01:28.108Z,62.20
2018-02-05T21:03:54.510Z,62.80
2018-02-05T21:06:21.519Z,62.60
2018-02-05T21:08:48.011Z,62.30
2018-02-05T21:11:14.566Z,62.70
2018-02-05T21:13:41.398Z,63.00
2018-02-05T21:16:07.921Z,62.90
2018-02-05T21:18:34.529Z,63.00
2018-02-05T21:21:00.976Z,63.00
2018-02-05T21:23:27.646Z,63.10
2018-02-05T21:25:54.092Z,63.70
2018-02-05T21:28:20.604Z,63.10
2018-02-05T21:30:47.204Z,63.00
2018-02-05T21:33:14.057Z,63.60
2018-02-05T21:35:40.604Z,63.50
2018-02-05T21:38:07.108Z,63.60
2018-02-05T21:40:33.656Z,63.70
2018-02-05T21:43:00.170Z,63.50
2018-02-05T21:45:26.668Z,63.30
2018-02-05T21:47:53.204Z,64.10
2018-02-05T21:50:21.903Z,64.10
2018-02-05T21:52:48.427Z,64.40
2018-02-05T21:55:15.032Z,64.40
2018-02-05T21:57:41.595Z,64.40
2018-02-05T22:00:08.084Z,64.60
2018-02-05T22:02:34.623Z,64.70
2018-02-05T22:05:01.079Z,64.80
2018-02-05T22:07:27.639Z,65.10
2018-02-05T22:09:54.240Z,65.10
2018-02-05T22:12:20.695Z,65.60
2018-02-05T22:14:47.632Z,65.30
2018-02-05T22:17:14.078Z,65.60
2018-02-05T22:19:40.607Z,65.60
2018-02-05T22:22:07.002Z,65.40
2018-02-05T22:24:34.044Z,65.60
2018-02-05T22:27:00.575Z,65.40
2018-02-05T22:29:27.971Z,65.80
2018-02-05T22:31:54.787Z,65.70
2018-02-05T22:34:21.416Z,65.60
2018-02-05T22:36:47.898Z,65.90
2018-02-05T22:39:14.430Z,66.10
2018-02-05T22:41:41.281Z,65.90
2018-02-05T22:44:07.821Z,65.80
2018-02-05T22:46:34.343Z,65.80
2018-02-05T22:49:00.836Z,65.70
2018-02-05T22:51:27.792Z,65.70
2018-02-05T22:53:54.242Z,66.10
2018-02-05T22:56:20.912Z,66.50
2018-02-05T22:58:47.323Z,66.70
2018-02-05T23:01:13.851Z,66.40
2018-02-05T23:03:40.388Z,66.20
2018-02-05T23:06:06.916Z,66.30
2018-02-05T23:08:33.507Z,65.70
2018-02-05T23:11:00.057Z,65.90
2018-02-05T23:13:26.555Z,65.70
2018-02-05T23:15:53.076Z,65.00
2018-02-05T23:18:19.609Z,65.70
2018-02-05T23:20:46.162Z,65.80
2018-02-05T23:23:12.984Z,65.70
2018-02-05T23:25:39.561Z,66.00
2018-02-05T23:28:06.356Z,65.80
2018-02-05T23:30:32.995Z,65.80
2018-02-05T23:33:00.408Z,65.90
2018-02-05T23:35:26.889Z,65.90
2018-02-05T23:37:53.435Z,65.80
2018-02-05T23:40:20.016Z,66.00
2018-02-05T23:42:46.551Z,65.60
2018-02-05T23:45:13.036Z,65.60
2018-02-05T23:47:39.607Z,65.30
2018-02-05T23:50:06.395Z,65.60
2018-02-05T23:52:32.973Z,65.70
2018-02-05T23:54:59.524Z,65.10
2018-02-05T23:57:26.937Z,65.00
2018-02-05T23:59:53.519Z,65.00
